createdAt,value
2023-04-18T00:00:56.387Z,92.53
2023-04-18T00:01:56.033Z,92.53
2023-04-18T00:02:56.276Z,92.43
2023-04-18T00:03:56.137Z,92.53
2023-04-18T00:04:56.473Z,92.63
2023-04-18T00:05:56.032Z,92.47
2023-04-18T00:06:55.954Z,92.63
2023-04-18T00:07:55.954Z,92.63
2023-04-18T00:08:55.988Z,92.68
2023-04-18T00:09:56.235Z,92.78
2023-04-18T00:10:55.942Z,92.88
2023-04-18T00:11:55.879Z,92.88
2023-04-18T00:12:55.896Z,92.99
2023-04-18T00:13:55.905Z,92.99
2023-04-18T00:14:55.856Z,93.13
2023-04-18T00:15:55.837Z,93.34
2023-04-18T00:16:55.935Z,93.65
2023-04-18T00:17:55.846Z,93.75
2023-04-18T00:18:55.841Z,94.06
2023-04-18T00:19:55.822Z,94.06
2023-04-18T00:20:55.783Z,94.06
2023-04-18T00:21:56.108Z,93.96
2023-04-18T00:22:55.738Z,93.75
2023-04-18T00:23:55.769Z,93.65
2023-04-18T00:24:55.735Z,93.34
2023-04-18T00:25:55.709Z,93.13
2023-04-18T00:26:58.438Z,93.65
2023-04-18T00:27:55.709Z,93.85
2023-04-18T00:28:55.689Z,93.75
2023-04-18T00:29:55.713Z,93.65
2023-04-18T00:30:56.073Z,93.75
2023-04-18T00:32:04.092Z,93.65
2023-04-18T00:33:02.990Z,93.24
2023-04-18T00:34:03.431Z,93.44
2023-04-18T00:35:02.997Z,93.49
2023-04-18T00:35:55.957Z,93.59
2023-04-18T00:36:55.612Z,93.38
2023-04-18T00:37:55.926Z,93.49
2023-04-18T00:38:55.582Z,93.59
2023-04-18T00:39:55.910Z,93.59
2023-04-18T00:40:55.600Z,93.59
2023-04-18T00:41:55.524Z,93.49
2023-04-18T00:42:55.883Z,93.69
2023-04-18T00:43:55.519Z,93.90
2023-04-18T00:44:55.535Z,93.69
2023-04-18T00:45:55.510Z,93.79
2023-04-18T00:46:55.517Z,93.84
2023-04-18T00:47:55.556Z,93.84
2023-04-18T00:48:55.469Z,94.04
2023-04-18T00:49:55.440Z,93.94
2023-04-18T00:50:55.455Z,93.84
2023-04-18T00:51:55.455Z,93.63
2023-04-18T00:52:55.406Z,93.94
2023-04-18T00:53:55.461Z,94.15
2023-04-18T00:54:55.770Z,94.04
2023-04-18T00:55:55.363Z,93.94
2023-04-18T00:56:55.386Z,93.63
2023-04-18T00:57:55.326Z,93.84
2023-04-18T00:58:55.375Z,93.84
2023-04-18T00:59:55.342Z,93.84
2023-04-18T01:00:55.325Z,93.73
2023-04-18T01:01:55.463Z,93.53
2023-04-18T01:02:56.039Z,93.22
2023-04-18T01:03:55.507Z,93.37
2023-04-18T01:04:55.590Z,93.37
2023-04-18T01:05:55.275Z,93.57
2023-04-18T01:06:55.265Z,93.98
2023-04-18T01:07:55.252Z,94.19
2023-04-18T01:08:55.227Z,94.19
2023-04-18T01:09:55.207Z,93.88
2023-04-18T01:10:55.206Z,93.88
2023-04-18T01:11:55.197Z,93.78
2023-04-18T01:12:55.218Z,93.88
2023-04-18T01:13:55.201Z,94.29
2023-04-18T01:14:55.187Z,94.29
2023-04-18T01:15:55.605Z,94.50
2023-04-18T01:16:55.102Z,94.40
2023-04-18T01:17:56.921Z,94.19
2023-04-18T01:18:55.109Z,94.09
2023-04-18T01:19:55.133Z,94.19
2023-04-18T01:20:55.080Z,94.09
2023-04-18T01:21:55.093Z,94.09
2023-04-18T01:22:55.115Z,94.29
2023-04-18T01:23:57.806Z,94.23
2023-04-18T01:24:55.041Z,94.44
2023-04-18T01:25:55.317Z,94.54
2023-04-18T01:26:55.877Z,94.96
2023-04-18T01:27:54.982Z,94.65
2023-04-18T01:28:55.371Z,94.75
2023-04-18T01:29:55.029Z,94.79
2023-04-18T01:30:54.988Z,95.17
2023-04-18T01:31:54.944Z,95.06
2023-04-18T01:32:54.964Z,94.75
2023-04-18T01:33:54.951Z,94.85
2023-04-18T01:34:55.201Z,95.06
2023-04-18T01:35:55.457Z,94.96
2023-04-18T01:36:54.921Z,94.96
2023-04-18T01:37:55.247Z,95.48
2023-04-18T01:38:54.914Z,95.27
2023-04-18T01:39:54.846Z,94.96
2023-04-18T01:40:56.706Z,94.96
2023-04-18T01:41:55.954Z,95.10
2023-04-18T01:42:55.229Z,95.10
2023-04-18T01:43:54.837Z,95.42
2023-04-18T01:44:54.807Z,95.42
2023-04-18T01:45:56.737Z,95.31
2023-04-18T01:46:54.839Z,95.42
2023-04-18T01:47:55.080Z,95.31
2023-04-18T01:48:55.294Z,95.52
2023-04-18T01:49:54.807Z,95.73
2023-04-18T01:50:54.728Z,95.73
2023-04-18T01:51:56.521Z,95.52
2023-04-18T01:52:56.650Z,95.31
2023-04-18T01:53:55.094Z,95.21
2023-04-18T01:54:55.060Z,95.52
2023-04-18T01:55:55.522Z,95.62
2023-04-18T01:56:56.504Z,95.62
2023-04-18T01:57:57.488Z,95.52
2023-04-18T01:58:55.034Z,95.62
2023-04-18T01:59:55.948Z,95.77
2023-04-18T02:00:55.012Z,95.77
2023-04-18T02:01:54.714Z,95.87
2023-04-18T02:02:56.618Z,95.77
2023-04-18T02:03:55.141Z,95.98
2023-04-18T02:04:54.933Z,95.98
2023-04-18T02:05:55.062Z,96.08
2023-04-18T02:06:55.476Z,96.12
2023-04-18T02:07:54.539Z,96.33
2023-04-18T02:08:57.335Z,96.33
2023-04-18T02:09:54.832Z,96.44
2023-04-18T02:10:56.419Z,96.54
2023-04-18T02:11:54.747Z,96.54
2023-04-18T02:12:54.840Z,96.75
2023-04-18T02:13:56.363Z,96.75
2023-04-18T02:14:54.484Z,96.75
2023-04-18T02:15:54.818Z,96.95
2023-04-18T02:16:54.900Z,96.95
2023-04-18T02:17:54.885Z,96.85
2023-04-18T02:18:54.724Z,97.06
2023-04-18T02:19:54.783Z,97.06
2023-04-18T02:21:03.404Z,96.95
2023-04-18T02:22:03.242Z,96.85
2023-04-18T02:23:03.671Z,96.85
2023-04-18T02:23:54.363Z,96.85
2023-04-18T02:24:54.656Z,96.85
2023-04-18T02:25:54.761Z,96.85
2023-04-18T02:26:54.715Z,96.64
2023-04-18T02:27:54.613Z,96.54
2023-04-18T02:28:54.665Z,96.75
2023-04-18T02:29:54.291Z,96.54
2023-04-18T02:30:54.448Z,96.54
2023-04-18T02:31:54.312Z,96.44
2023-04-18T02:32:56.177Z,96.44
2023-04-18T02:33:54.291Z,96.33
2023-04-18T02:34:54.212Z,96.33
2023-04-18T02:35:56.119Z,96.44
2023-04-18T02:36:54.564Z,96.44
2023-04-18T02:37:56.105Z,96.44
2023-04-18T02:38:56.057Z,96.54
2023-04-18T02:39:56.933Z,96.54
2023-04-18T02:40:54.907Z,96.58
2023-04-18T02:41:57.005Z,96.79
2023-04-18T02:42:55.925Z,97.00
2023-04-18T02:43:54.922Z,97.10
2023-04-18T02:44:54.453Z,97.10
2023-04-18T02:45:56.062Z,97.10
2023-04-18T02:46:55.868Z,97.00
2023-04-18T02:47:57.007Z,97.10
2023-04-18T02:48:55.904Z,97.20
2023-04-18T02:49:54.372Z,97.31
2023-04-18T02:50:54.366Z,97.20
2023-04-18T02:51:54.406Z,97.52
2023-04-18T02:52:54.406Z,97.52
2023-04-18T02:53:54.386Z,97.41
2023-04-18T02:54:54.379Z,97.62
2023-04-18T02:55:56.825Z,97.52
2023-04-18T02:56:56.813Z,97.45
2023-04-18T02:57:54.257Z,97.56
2023-04-18T02:58:54.000Z,97.66
2023-04-18T02:59:53.948Z,97.66
2023-04-18T03:00:53.985Z,97.45
2023-04-18T03:01:54.290Z,97.66
2023-04-18T03:02:54.041Z,97.77
2023-04-18T03:03:56.673Z,97.77
2023-04-18T03:04:53.908Z,97.66
2023-04-18T03:05:53.973Z,97.83
2023-04-18T03:06:53.911Z,97.66
2023-04-18T03:07:53.863Z,97.56
2023-04-18T03:08:54.155Z,97.77
2023-04-18T03:09:53.812Z,97.77
2023-04-18T03:10:55.096Z,97.56
2023-04-18T03:11:53.808Z,97.87
2023-04-18T03:12:53.814Z,97.87
2023-04-18T03:13:53.785Z,97.87
2023-04-18T03:14:53.778Z,97.77
2023-04-18T03:15:53.790Z,97.77
2023-04-18T03:16:55.224Z,97.77
2023-04-18T03:17:53.792Z,97.77
2023-04-18T03:18:53.726Z,97.66
2023-04-18T03:19:53.697Z,97.77
2023-04-18T03:20:53.743Z,97.77
2023-04-18T03:21:53.699Z,97.87
2023-04-18T03:22:53.688Z,97.97
2023-04-18T03:23:53.692Z,97.87
2023-04-18T03:24:53.677Z,97.97
2023-04-18T03:25:53.674Z,97.97
2023-04-18T03:26:53.633Z,98.08
2023-04-18T03:27:53.641Z,97.97
2023-04-18T03:28:53.607Z,97.87
2023-04-18T03:29:53.605Z,97.81
2023-04-18T03:30:53.632Z,98.08
2023-04-18T03:31:53.574Z,97.97
2023-04-18T03:32:53.713Z,97.97
2023-04-18T03:33:53.575Z,97.97
2023-04-18T03:34:53.577Z,97.87
2023-04-18T03:35:53.535Z,97.87
2023-04-18T03:36:53.533Z,97.77
2023-04-18T03:37:53.527Z,97.97
2023-04-18T03:38:53.541Z,97.77
2023-04-18T03:39:53.495Z,97.87
2023-04-18T03:40:56.183Z,97.66
2023-04-18T03:41:53.512Z,97.77
2023-04-18T03:42:56.193Z,97.66
2023-04-18T03:43:53.481Z,97.77
2023-04-18T03:44:53.431Z,97.81
2023-04-18T03:45:53.520Z,97.77
2023-04-18T03:46:53.400Z,97.71
2023-04-18T03:47:53.450Z,97.91
2023-04-18T03:48:53.746Z,98.08
2023-04-18T03:49:53.365Z,98.18
2023-04-18T03:50:53.377Z,98.08
2023-04-18T03:51:53.366Z,97.87
2023-04-18T03:52:53.763Z,97.97
2023-04-18T03:53:53.340Z,97.97
2023-04-18T03:54:53.313Z,97.97
2023-04-18T03:55:53.329Z,97.81
2023-04-18T03:56:53.298Z,97.71
2023-04-18T03:57:53.313Z,97.91
2023-04-18T03:58:53.281Z,98.02
2023-04-18T03:59:53.287Z,98.02
2023-04-18T04:00:53.294Z,98.02
2023-04-18T04:01:53.371Z,97.91
2023-04-18T04:03:00.646Z,97.91
2023-04-18T04:04:00.620Z,97.71
2023-04-18T04:05:00.282Z,97.60
2023-04-18T04:06:00.550Z,97.81
2023-04-18T04:07:03.107Z,97.91
2023-04-18T04:07:53.192Z,97.91
2023-04-18T04:08:53.400Z,97.81
2023-04-18T04:09:53.164Z,98.02
2023-04-18T04:10:53.153Z,98.12
2023-04-18T04:11:53.122Z,97.91
2023-04-18T04:12:53.133Z,98.22
2023-04-18T04:13:53.130Z,98.12
2023-04-18T04:14:53.430Z,98.22
2023-04-18T04:15:53.187Z,98.22
2023-04-18T04:16:53.478Z,98.22
2023-04-18T04:17:53.123Z,98.33
2023-04-18T04:18:53.099Z,98.12
2023-04-18T04:19:53.050Z,98.43
2023-04-18T04:20:53.049Z,98.54
2023-04-18T04:21:53.027Z,98.28
2023-04-18T04:22:53.029Z,98.18
2023-04-18T04:23:53.034Z,97.97
2023-04-18T04:24:52.998Z,97.97
2023-04-18T04:25:52.978Z,98.08
2023-04-18T04:26:52.980Z,97.97
2023-04-18T04:27:55.654Z,97.87
2023-04-18T04:28:52.940Z,97.77
2023-04-18T04:29:53.226Z,97.66
2023-04-18T04:30:52.933Z,97.45
2023-04-18T04:31:53.039Z,97.45
2023-04-18T04:32:52.970Z,97.52
2023-04-18T04:33:52.896Z,97.62
2023-04-18T04:34:52.867Z,97.41
2023-04-18T04:35:53.250Z,97.20
2023-04-18T04:36:52.840Z,96.89
2023-04-18T04:37:52.840Z,96.69
2023-04-18T04:38:52.895Z,96.37
2023-04-18T04:39:52.845Z,96.06
2023-04-18T04:40:52.835Z,96.17
2023-04-18T04:41:52.808Z,96.17
2023-04-18T04:42:52.845Z,96.48
2023-04-18T04:43:52.801Z,96.44
2023-04-18T04:44:52.829Z,96.23
2023-04-18T04:45:52.800Z,95.92
2023-04-18T04:46:52.722Z,96.12
2023-04-18T04:47:52.773Z,96.23
2023-04-18T04:48:53.038Z,96.23
2023-04-18T04:49:52.740Z,96.33
2023-04-18T04:50:55.484Z,96.23
2023-04-18T04:51:55.518Z,96.02
2023-04-18T04:52:52.675Z,95.92
2023-04-18T04:53:54.481Z,95.67
2023-04-18T04:54:52.649Z,95.56
2023-04-18T04:55:52.651Z,95.25
2023-04-18T04:56:52.647Z,95.15
2023-04-18T04:57:52.744Z,95.36
2023-04-18T04:58:52.642Z,95.56
2023-04-18T04:59:52.581Z,95.56
2023-04-18T05:00:52.715Z,95.56
2023-04-18T05:01:52.738Z,95.36
2023-04-18T05:02:52.679Z,95.15
2023-04-18T05:03:53.039Z,95.04
2023-04-18T05:04:56.072Z,94.90
2023-04-18T05:05:55.484Z,94.79
2023-04-18T05:06:52.522Z,94.59
2023-04-18T05:07:52.504Z,94.69
2023-04-18T05:08:52.504Z,94.38
2023-04-18T05:09:52.502Z,93.66
2023-04-18T05:10:52.485Z,93.41
2023-04-18T05:11:52.444Z,92.89
2023-04-18T05:12:52.484Z,92.95
2023-04-18T05:13:52.427Z,92.74
2023-04-18T05:14:52.778Z,92.33
2023-04-18T05:15:52.807Z,92.54
2023-04-18T05:16:52.792Z,92.44
2023-04-18T05:17:52.477Z,91.71
2023-04-18T05:18:52.369Z,90.99
2023-04-18T05:19:52.376Z,90.74
2023-04-18T05:20:52.668Z,90.64
2023-04-18T05:21:52.380Z,90.43
2023-04-18T05:22:52.334Z,90.28
2023-04-18T05:23:52.686Z,90.28
2023-04-18T05:24:52.343Z,90.80
2023-04-18T05:25:52.339Z,90.59
2023-04-18T05:26:57.606Z,89.77
2023-04-18T05:27:52.309Z,89.15
2023-04-18T05:28:52.661Z,89.15
2023-04-18T05:29:52.254Z,89.11
2023-04-18T05:30:52.570Z,89.42
2023-04-18T05:31:52.555Z,88.70
2023-04-18T05:32:52.268Z,88.59
2023-04-18T05:33:52.295Z,88.80
2023-04-18T05:34:52.488Z,89.01
2023-04-18T05:35:52.264Z,88.39
2023-04-18T05:36:52.447Z,87.73
2023-04-18T05:37:52.520Z,87.73
2023-04-18T05:38:52.423Z,87.73
2023-04-18T05:39:52.130Z,87.01
2023-04-18T05:40:52.105Z,85.67
2023-04-18T05:41:52.144Z,84.84
2023-04-18T05:42:52.139Z,84.84
2023-04-18T05:44:16.950Z,85.63
2023-04-18T05:44:53.059Z,85.83
2023-04-18T05:45:58.011Z,85.11
2023-04-18T05:47:00.063Z,85.22
2023-04-18T05:48:00.434Z,85.94
2023-04-18T05:49:00.054Z,85.22
2023-04-18T05:50:01.384Z,84.05
2023-04-18T05:50:59.378Z,84.25
2023-04-18T05:52:00.504Z,84.45
2023-04-18T05:52:52.010Z,84.56
2023-04-18T05:53:51.974Z,84.25
2023-04-18T05:54:52.232Z,84.56
2023-04-18T05:55:51.960Z,84.00
2023-04-18T05:56:51.960Z,83.39
2023-04-18T05:57:51.937Z,83.28
2023-04-18T05:58:51.922Z,83.39
2023-04-18T05:59:51.949Z,83.39
2023-04-18T06:00:51.893Z,83.59
2023-04-18T06:01:52.215Z,82.93
2023-04-18T06:02:52.059Z,82.73
2023-04-18T06:03:52.081Z,82.21
2023-04-18T06:04:52.030Z,83.04
2023-04-18T06:05:51.865Z,83.31
2023-04-18T06:06:51.846Z,83.41
2023-04-18T06:07:51.847Z,82.39
2023-04-18T06:08:51.796Z,82.39
2023-04-18T06:09:51.820Z,82.28
2023-04-18T06:10:51.763Z,81.73
2023-04-18T06:11:51.778Z,81.32
2023-04-18T06:12:51.775Z,81.21
2023-04-18T06:13:51.756Z,79.98
2023-04-18T06:14:51.713Z,80.19
2023-04-18T06:15:51.782Z,80.29
2023-04-18T06:16:52.051Z,79.67
2023-04-18T06:17:51.748Z,79.63
2023-04-18T06:18:51.673Z,80.05
2023-04-18T06:19:51.972Z,79.63
2023-04-18T06:20:52.020Z,79.74
2023-04-18T06:21:51.659Z,79.12
2023-04-18T06:22:51.681Z,79.22
2023-04-18T06:23:51.930Z,79.02
2023-04-18T06:24:51.620Z,78.50
2023-04-18T06:25:51.596Z,78.50
2023-04-18T06:26:51.601Z,78.92
2023-04-18T06:27:51.584Z,78.50
2023-04-18T06:28:51.558Z,78.50
2023-04-18T06:29:51.579Z,79.53
2023-04-18T06:30:51.535Z,79.22
2023-04-18T06:31:51.653Z,78.88
2023-04-18T06:32:51.582Z,78.88
2023-04-18T06:33:51.512Z,78.71
2023-04-18T06:34:51.796Z,78.71
2023-04-18T06:35:51.476Z,79.02
2023-04-18T06:36:51.462Z,79.22
2023-04-18T06:37:51.483Z,79.22
2023-04-18T06:38:51.833Z,79.33
2023-04-18T06:39:51.441Z,79.22
2023-04-18T06:40:51.440Z,79.43
2023-04-18T06:41:51.446Z,79.63
2023-04-18T06:42:51.396Z,79.22
2023-04-18T06:44:14.511Z,79.43
2023-04-18T06:44:52.418Z,79.94
2023-04-18T06:45:51.748Z,79.49
2023-04-18T06:46:51.356Z,79.39
2023-04-18T06:47:51.712Z,79.39
2023-04-18T06:48:51.628Z,78.67
2023-04-18T06:49:51.706Z,78.78
2023-04-18T06:50:51.651Z,79.08
2023-04-18T06:51:51.343Z,79.49
2023-04-18T06:52:51.283Z,79.19
2023-04-18T06:53:51.286Z,78.67
2023-04-18T06:54:51.576Z,79.36
2023-04-18T06:55:51.231Z,78.88
2023-04-18T06:56:51.645Z,78.43
2023-04-18T06:57:51.256Z,78.64
2023-04-18T06:58:51.228Z,78.47
2023-04-18T06:59:51.211Z,78.36
2023-04-18T07:00:51.210Z,78.43
2023-04-18T07:01:51.211Z,78.43
2023-04-18T07:02:51.295Z,78.53
2023-04-18T07:03:51.271Z,78.02
2023-04-18T07:04:51.168Z,78.12
2023-04-18T07:05:51.458Z,78.23
2023-04-18T07:06:51.125Z,78.43
2023-04-18T07:07:51.123Z,78.02
2023-04-18T07:08:53.317Z,77.92
2023-04-18T07:09:51.127Z,78.12
2023-04-18T07:10:51.065Z,78.43
2023-04-18T07:11:53.931Z,78.64
2023-04-18T07:12:51.080Z,78.74
2023-04-18T07:13:51.050Z,78.33
2023-04-18T07:14:51.080Z,78.02
2023-04-18T07:15:51.015Z,78.06
2023-04-18T07:16:51.087Z,78.27
2023-04-18T07:17:51.323Z,78.33
2023-04-18T07:18:50.992Z,78.23
2023-04-18T07:19:51.276Z,77.92
2023-04-18T07:20:50.969Z,77.71
2023-04-18T07:21:50.963Z,77.61
2023-04-18T07:22:51.006Z,77.40
2023-04-18T07:23:53.708Z,77.30
2023-04-18T07:24:50.956Z,77.40
2023-04-18T07:25:50.920Z,77.30
2023-04-18T07:26:52.523Z,77.47
2023-04-18T07:27:50.942Z,77.06
2023-04-18T07:28:50.866Z,76.96
2023-04-18T07:29:50.911Z,77.17
2023-04-18T07:30:50.905Z,77.06
2023-04-18T07:31:50.867Z,77.26
2023-04-18T07:32:58.236Z,76.75
2023-04-18T07:33:59.717Z,77.06
2023-04-18T07:34:59.665Z,76.75
2023-04-18T07:35:58.627Z,76.86
2023-04-18T07:36:50.788Z,76.96
2023-04-18T07:37:51.187Z,76.96
2023-04-18T07:38:50.754Z,76.86
2023-04-18T07:39:51.136Z,77.33
2023-04-18T07:40:50.744Z,77.44
2023-04-18T07:41:50.755Z,76.92
2023-04-18T07:42:50.735Z,76.92
2023-04-18T07:43:50.718Z,76.62
2023-04-18T07:44:51.034Z,77.03
2023-04-18T07:45:50.756Z,77.03
2023-04-18T07:46:50.699Z,76.62
2023-04-18T07:47:50.746Z,76.72
2023-04-18T07:48:52.455Z,76.82
2023-04-18T07:49:50.653Z,76.20
2023-04-18T07:50:50.651Z,76.31
2023-04-18T07:51:50.659Z,76.31
2023-04-18T07:52:50.637Z,76.31
2023-04-18T07:53:50.611Z,76.10
2023-04-18T07:54:50.991Z,76.10
2023-04-18T07:55:50.588Z,76.20
2023-04-18T07:56:50.581Z,76.31
2023-04-18T07:57:50.604Z,76.51
2023-04-18T07:58:52.382Z,76.37
2023-04-18T07:59:50.544Z,76.07
2023-04-18T08:00:50.807Z,75.45
2023-04-18T08:01:50.505Z,75.62
2023-04-18T08:02:50.620Z,75.73
2023-04-18T08:03:50.632Z,75.42
2023-04-18T08:04:51.046Z,75.62
2023-04-18T08:05:50.497Z,75.38
2023-04-18T08:06:50.610Z,75.38
2023-04-18T08:07:50.551Z,74.84
2023-04-18T08:08:50.442Z,74.32
2023-04-18T08:09:50.425Z,73.68
2023-04-18T08:10:50.455Z,73.85
2023-04-18T08:11:50.439Z,72.72
2023-04-18T08:12:50.714Z,71.39
2023-04-18T08:13:50.390Z,71.83
2023-04-18T08:14:50.363Z,72.48
2023-04-18T08:15:50.417Z,72.89
2023-04-18T08:16:50.392Z,72.69
2023-04-18T08:17:50.373Z,72.58
2023-04-18T08:18:50.319Z,73.16
2023-04-18T08:19:50.318Z,72.14
2023-04-18T08:20:50.292Z,71.94
2023-04-18T08:21:50.338Z,72.24
2023-04-18T08:23:05.252Z,72.34
2023-04-18T08:23:51.262Z,72.38
2023-04-18T08:25:03.817Z,72.65
2023-04-18T08:25:51.263Z,72.72
2023-04-18T08:26:50.256Z,72.52
2023-04-18T08:27:50.276Z,73.50
2023-04-18T08:28:50.200Z,72.17
2023-04-18T08:29:50.557Z,72.24
2023-04-18T08:30:50.188Z,71.15
2023-04-18T08:31:50.178Z,71.22
2023-04-18T08:32:50.530Z,71.22
2023-04-18T08:33:50.155Z,70.57
2023-04-18T08:34:50.154Z,70.37
2023-04-18T08:35:50.116Z,71.39
2023-04-18T08:36:50.116Z,70.64
2023-04-18T08:37:50.117Z,71.26
2023-04-18T08:38:50.062Z,70.34
2023-04-18T08:39:50.380Z,70.17
2023-04-18T08:40:50.053Z,70.17
2023-04-18T08:41:55.823Z,70.57
2023-04-18T08:42:50.035Z,70.57
2023-04-18T08:43:50.037Z,71.09
2023-04-18T08:44:50.017Z,71.50
2023-04-18T08:45:50.061Z,70.17
2023-04-18T08:46:49.997Z,70.17
2023-04-18T08:47:50.052Z,70.75
2023-04-18T08:48:50.000Z,70.23
2023-04-18T08:49:49.941Z,69.01
2023-04-18T08:50:49.978Z,70.23
2023-04-18T08:51:49.971Z,69.93
2023-04-18T08:52:49.944Z,69.01
2023-04-18T08:53:50.276Z,69.62
2023-04-18T08:54:49.908Z,69.42
2023-04-18T08:55:49.879Z,68.50
2023-04-18T08:56:49.902Z,69.11
2023-04-18T08:57:49.892Z,69.04
2023-04-18T08:58:50.605Z,68.63
2023-04-18T08:59:51.125Z,69.24
2023-04-18T09:00:49.917Z,68.43
2023-04-18T09:01:49.842Z,68.84
2023-04-18T09:02:49.914Z,68.94
2023-04-18T09:03:49.810Z,69.15
2023-04-18T09:04:49.802Z,69.01
2023-04-18T09:05:49.763Z,69.52
2023-04-18T09:06:49.776Z,69.82
2023-04-18T09:07:49.809Z,68.50
2023-04-18T09:08:49.741Z,68.63
2023-04-18T09:09:49.713Z,69.01
2023-04-18T09:10:49.739Z,69.01
2023-04-18T09:11:50.091Z,69.21
2023-04-18T09:12:49.764Z,68.70
2023-04-18T09:13:49.986Z,68.91
2023-04-18T09:14:49.670Z,69.69
2023-04-18T09:15:49.661Z,68.67
2023-04-18T09:16:57.023Z,68.88
2023-04-18T09:17:57.248Z,68.67
2023-04-18T09:18:59.553Z,68.88
2023-04-18T09:19:57.008Z,68.26
2023-04-18T09:20:59.749Z,68.47
2023-04-18T09:21:56.975Z,69.08
2023-04-18T09:22:56.985Z,68.57
2023-04-18T09:23:49.572Z,69.69
2023-04-18T09:24:49.563Z,69.90
2023-04-18T09:25:49.541Z,69.18
2023-04-18T09:26:49.549Z,69.49
2023-04-18T09:27:49.858Z,69.38
2023-04-18T09:28:49.828Z,68.77
2023-04-18T09:29:49.830Z,67.96
2023-04-18T09:30:49.564Z,67.65
2023-04-18T09:31:49.506Z,68.44
2023-04-18T09:32:49.526Z,68.64
2023-04-18T09:33:49.455Z,67.82
2023-04-18T09:34:49.443Z,67.72
2023-04-18T09:35:49.452Z,67.62
2023-04-18T09:36:49.476Z,67.52
2023-04-18T09:37:49.732Z,67.99
2023-04-18T09:38:49.444Z,67.18
2023-04-18T09:39:49.406Z,67.18
2023-04-18T09:40:52.181Z,67.62
2023-04-18T09:41:49.691Z,67.41
2023-04-18T09:42:49.381Z,67.11
2023-04-18T09:43:52.140Z,67.32
2023-04-18T09:44:49.336Z,67.11
2023-04-18T09:45:49.409Z,67.72
2023-04-18T09:46:49.454Z,67.41
2023-04-18T09:47:49.371Z,66.67
2023-04-18T09:48:49.297Z,65.95
2023-04-18T09:49:49.276Z,66.54
2023-04-18T09:50:49.278Z,66.33
2023-04-18T09:51:49.281Z,66.50
2023-04-18T09:52:51.963Z,65.72
2023-04-18T09:53:49.258Z,66.41
2023-04-18T09:54:49.268Z,65.69
2023-04-18T09:55:49.220Z,65.28
2023-04-18T09:56:49.230Z,65.28
2023-04-18T09:57:49.493Z,66.10
2023-04-18T09:58:49.178Z,66.17
2023-04-18T09:59:49.148Z,66.55
2023-04-18T10:00:49.449Z,65.02
2023-04-18T10:01:49.160Z,64.81
2023-04-18T10:02:49.227Z,64.48
2023-04-18T10:03:49.252Z,65.30
2023-04-18T10:04:49.194Z,64.48
2023-04-18T10:05:52.035Z,64.48
2023-04-18T10:06:49.526Z,64.18
2023-04-18T10:07:49.070Z,64.58
2023-04-18T10:08:49.096Z,64.48
2023-04-18T10:09:49.068Z,64.79
2023-04-18T10:10:49.324Z,64.55
2023-04-18T10:11:49.047Z,64.15
2023-04-18T10:12:49.384Z,63.71
2023-04-18T10:13:49.009Z,64.12
2023-04-18T10:14:48.975Z,64.62
2023-04-18T10:15:50.616Z,63.60
2023-04-18T10:16:50.486Z,63.00
2023-04-18T10:18:02.653Z,63.00
2023-04-18T10:18:49.947Z,64.12
2023-04-18T10:19:48.969Z,64.59
2023-04-18T10:20:48.922Z,63.17
2023-04-18T10:21:48.897Z,63.71
2023-04-18T10:22:49.280Z,63.30
2023-04-18T10:23:49.335Z,64.04
2023-04-18T10:24:48.856Z,64.25
2023-04-18T10:25:48.864Z,65.26
2023-04-18T10:26:49.184Z,64.79
2023-04-18T10:27:49.059Z,64.69
2023-04-18T10:28:48.811Z,65.73
2023-04-18T10:29:49.788Z,65.91
2023-04-18T10:30:54.042Z,65.30
2023-04-18T10:31:48.874Z,65.70
2023-04-18T10:32:49.154Z,64.31
2023-04-18T10:34:00.768Z,64.11
2023-04-18T10:34:49.726Z,65.12
2023-04-18T10:35:48.750Z,65.43
2023-04-18T10:36:48.757Z,64.61
2023-04-18T10:37:48.718Z,65.19
2023-04-18T10:38:49.021Z,64.38
2023-04-18T10:39:48.710Z,64.55
2023-04-18T10:40:49.051Z,64.25
2023-04-18T10:41:49.483Z,63.64
2023-04-18T10:42:48.688Z,64.28
2023-04-18T10:43:48.643Z,64.55
2023-04-18T10:44:49.008Z,64.25
2023-04-18T10:45:48.696Z,64.35
2023-04-18T10:46:48.687Z,65.06
2023-04-18T10:47:48.752Z,66.08
2023-04-18T10:48:48.893Z,66.18
2023-04-18T10:49:48.573Z,66.96
2023-04-18T10:50:48.549Z,65.91
2023-04-18T10:51:48.573Z,65.10
2023-04-18T10:52:50.477Z,64.29
2023-04-18T10:53:48.842Z,63.48
2023-04-18T10:54:48.809Z,64.70
2023-04-18T10:55:48.858Z,63.81
2023-04-18T10:56:48.533Z,64.83
2023-04-18T10:57:48.828Z,64.52
2023-04-18T10:58:48.461Z,65.06
2023-04-18T10:59:48.520Z,65.16
2023-04-18T11:00:48.482Z,65.16
2023-04-18T11:01:48.452Z,65.88
2023-04-18T11:02:48.555Z,65.77
2023-04-18T11:03:48.485Z,65.67
2023-04-18T11:04:55.923Z,65.67
2023-04-18T11:05:56.846Z,65.16
2023-04-18T11:06:48.398Z,66.66
2023-04-18T11:07:56.745Z,65.64
2023-04-18T11:08:48.329Z,65.30
2023-04-18T11:09:48.402Z,64.70
2023-04-18T11:10:48.331Z,65.51
2023-04-18T11:11:48.383Z,65.58
2023-04-18T11:12:48.287Z,65.48
2023-04-18T11:13:48.269Z,64.13
2023-04-18T11:14:48.293Z,63.75
2023-04-18T11:15:48.297Z,64.26
2023-04-18T11:16:48.354Z,64.67
2023-04-18T11:17:48.289Z,64.61
2023-04-18T11:18:48.243Z,63.69
2023-04-18T11:19:48.260Z,64.07
2023-04-18T11:20:48.257Z,63.86
2023-04-18T11:21:48.237Z,62.98
2023-04-18T11:22:48.544Z,62.71
2023-04-18T11:23:48.178Z,63.52
2023-04-18T11:24:48.512Z,63.55
2023-04-18T11:25:48.189Z,63.95
2023-04-18T11:26:48.218Z,64.46
2023-04-18T11:27:48.165Z,64.46
2023-04-18T11:28:48.149Z,64.79
2023-04-18T11:29:48.141Z,64.36
2023-04-18T11:30:48.477Z,64.67
2023-04-18T11:31:48.125Z,64.97
2023-04-18T11:32:48.111Z,65.00
2023-04-18T11:33:48.074Z,65.81
2023-04-18T11:34:48.070Z,65.27
2023-04-18T11:35:48.129Z,64.97
2023-04-18T11:36:48.110Z,65.07
2023-04-18T11:37:48.453Z,64.46
2023-04-18T11:38:48.009Z,64.56
2023-04-18T11:39:48.039Z,64.97
2023-04-18T11:40:48.279Z,64.84
2023-04-18T11:41:47.975Z,65.24
2023-04-18T11:42:47.956Z,65.04
2023-04-18T11:43:47.993Z,64.43
2023-04-18T11:44:47.988Z,64.84
2023-04-18T11:45:47.990Z,64.70
2023-04-18T11:46:48.216Z,65.55
2023-04-18T11:47:47.984Z,65.45
2023-04-18T11:48:47.887Z,65.21
2023-04-18T11:49:47.922Z,64.50
2023-04-18T11:50:47.965Z,64.37
2023-04-18T11:51:47.886Z,62.85
2023-04-18T11:52:47.859Z,63.15
2023-04-18T11:53:47.841Z,63.89
2023-04-18T11:54:48.194Z,64.70
2023-04-18T11:55:47.840Z,64.70
2023-04-18T11:56:47.800Z,65.52
2023-04-18T11:57:47.792Z,65.82
2023-04-18T11:58:47.776Z,64.53
2023-04-18T11:59:47.792Z,64.84
2023-04-18T12:00:47.833Z,64.43
2023-04-18T12:01:47.893Z,65.04
2023-04-18T12:02:47.874Z,64.73
2023-04-18T12:03:47.834Z,65.62
2023-04-18T12:04:47.903Z,65.39
2023-04-18T12:05:47.869Z,65.18
2023-04-18T12:06:47.702Z,64.64
2023-04-18T12:07:47.696Z,63.56
2023-04-18T12:08:51.557Z,64.37
2023-04-18T12:09:47.977Z,64.37
2023-04-18T12:10:47.691Z,64.67
2023-04-18T12:11:47.651Z,65.05
2023-04-18T12:12:47.611Z,65.15
2023-04-18T12:13:47.616Z,64.82
2023-04-18T12:14:47.630Z,63.81
2023-04-18T12:15:47.884Z,63.47
2023-04-18T12:16:47.582Z,62.29
2023-04-18T12:17:47.584Z,62.38
2023-04-18T12:18:47.555Z,62.31
2023-04-18T12:19:49.714Z,63.09
2023-04-18T12:20:47.614Z,63.20
2023-04-18T12:21:47.536Z,62.89
2023-04-18T12:22:47.928Z,61.98
2023-04-18T12:23:47.506Z,62.26
2023-04-18T12:24:47.494Z,62.35
2023-04-18T12:25:47.535Z,61.85
2023-04-18T12:26:47.792Z,62.15
2023-04-18T12:27:47.476Z,62.26
2023-04-18T12:28:47.484Z,61.85
2023-04-18T12:29:47.469Z,61.55
2023-04-18T12:30:47.481Z,63.07
2023-04-18T12:31:47.502Z,61.78
2023-04-18T12:32:47.535Z,62.59
2023-04-18T12:33:47.410Z,63.30
2023-04-18T12:34:47.398Z,63.09
2023-04-18T12:35:49.070Z,63.07
2023-04-18T12:36:47.397Z,63.37
2023-04-18T12:37:47.355Z,63.07
2023-04-18T12:38:47.331Z,62.46
2023-04-18T12:39:47.331Z,62.84
2023-04-18T12:40:47.784Z,61.79
2023-04-18T12:41:49.535Z,61.69
2023-04-18T12:42:47.413Z,62.33
2023-04-18T12:43:47.330Z,61.82
2023-04-18T12:44:48.057Z,62.35
2023-04-18T12:45:47.277Z,62.79
2023-04-18T12:46:47.334Z,62.99
2023-04-18T12:47:47.702Z,63.09
2023-04-18T12:48:47.210Z,63.20
2023-04-18T12:49:47.549Z,63.37
2023-04-18T12:50:55.119Z,64.48
2023-04-18T12:51:55.082Z,63.04
2023-04-18T12:52:55.211Z,62.84